Time;durP1;ratioP1;P1;durP2;ratioP2;P2;SDS_P1;SDS_P2;PMS_P1;PMS_P2;Temp;Humidity;BMP_temperature;BMP_pressure;BME280_temperature;BME280_humidity;BME280_pressure;Samples;Min_cycle;Max_cycle;Signal;HPM_P1;HPM_P2
2023/09/12 00:01:24;;;;;;;20.02;9.18;;;20.40;99.90;;;;;;5041319;28;20031;-66
2023/09/12 00:03:49;;;;;;;14.15;9.73;;;20.40;99.90;;;;;;5053678;28;20029;-67
2023/09/12 00:06:15;;;;;;;15.07;9.35;;;20.40;99.90;;;;;;5041431;28;20048;-66
2023/09/12 00:08:41;;;;;;;13.05;9.07;;;20.30;99.90;;;;;;5060107;28;20061;-66
2023/09/12 00:11:12;;;;;;;13.55;9.85;;;20.30;99.90;;;;;;5055063;28;20089;-66
2023/09/12 00:13:41;;;;;;;21.42;10.98;;;20.20;99.90;;;;;;5059938;28;20025;-66
2023/09/12 00:16:10;;;;;;;15.93;8.82;;;20.20;99.90;;;;;;5060147;28;20025;-65
2023/09/12 00:18:37;;;;;;;14.38;9.35;;;20.20;99.90;;;;;;5059504;28;20029;-67
2023/09/12 00:21:03;;;;;;;21.20;10.52;;;20.20;99.90;;;;;;5054102;28;20453;-66
2023/09/12 00:23:29;;;;;;;21.42;10.95;;;20.10;99.90;;;;;;5060605;28;20032;-67
2023/09/12 00:25:54;;;;;;;19.55;11.25;;;20.10;99.90;;;;;;5059343;28;20040;-66
2023/09/12 00:28:20;;;;;;;17.33;10.80;;;20.10;99.90;;;;;;5042562;28;20554;-66
2023/09/12 00:30:46;;;;;;;23.73;11.68;;;20.20;99.90;;;;;;5057866;28;20120;-66
2023/09/12 00:33:12;;;;;;;15.98;10.25;;;20.20;99.90;;;;;;5056005;28;20112;-66
2023/09/12 00:35:38;;;;;;;15.40;11.00;;;20.30;99.90;;;;;;5050842;28;20040;-66
2023/09/12 00:38:03;;;;;;;16.77;11.70;;;20.30;99.90;;;;;;5058396;28;20044;-66
2023/09/12 00:40:29;;;;;;;18.30;10.43;;;20.30;99.90;;;;;;5057864;28;20023;-67
2023/09/12 00:42:55;;;;;;;17.05;10.75;;;20.40;99.90;;;;;;5056686;28;20033;-65
2023/09/12 00:45:21;;;;;;;17.00;10.35;;;20.40;99.90;;;;;;5059063;28;20035;-66
2023/09/12 00:47:47;;;;;;;18.95;10.52;;;20.30;99.90;;;;;;5057699;28;20037;-65
2023/09/12 00:50:14;;;;;;;14.43;10.13;;;20.30;99.90;;;;;;5057487;28;20028;-66
2023/09/12 00:52:42;;;;;;;23.65;12.73;;;20.30;99.90;;;;;;5053416;28;20059;-66
2023/09/12 00:55:08;;;;;;;17.73;11.45;;;20.40;99.90;;;;;;5054667;28;20032;-65
2023/09/12 00:57:35;;;;;;;15.70;9.52;;;20.40;99.90;;;;;;5056291;28;20033;-65
2023/09/12 01:00:11;;;;;;;19.80;12.52;;;20.30;99.90;;;;;;5051383;28;20082;-66
2023/09/12 01:02:41;;;;;;;21.80;10.88;;;20.30;99.90;;;;;;5052564;28;20047;-66
2023/09/12 01:05:09;;;;;;;16.35;10.50;;;20.30;99.90;;;;;;5052598;28;20102;-65
2023/09/12 01:07:38;;;;;;;14.57;10.85;;;20.30;99.90;;;;;;5061266;28;20501;-66
2023/09/12 01:10:05;;;;;;;15.35;9.77;;;20.30;99.90;;;;;;5054228;28;20119;-65
2023/09/12 01:12:31;;;;;;;22.15;10.23;;;20.20;99.90;;;;;;5055751;28;20056;-66
2023/09/12 01:14:56;;;;;;;23.73;12.13;;;20.20;99.90;;;;;;5050349;28;20061;-66
2023/09/12 01:17:24;;;;;;;15.40;10.88;;;20.10;99.90;;;;;;5036159;28;20434;-65
2023/09/12 01:19:49;;;;;;;19.23;12.95;;;20.10;99.90;;;;;;5043960;28;20120;-66
2023/09/12 01:22:21;;;;;;;18.92;12.63;;;20.10;99.90;;;;;;5044186;28;20108;-65
2023/09/12 01:24:52;;;;;;;20.85;14.52;;;20.20;99.90;;;;;;5043963;28;20118;-66
2023/09/12 01:27:48;;;;;;;20.73;14.20;;;20.20;99.90;;;;;;5055030;28;20020;-66
2023/09/12 01:30:18;;;;;;;21.92;14.43;;;20.20;99.90;;;;;;5054550;28;20033;-65
2023/09/12 01:32:44;;;;;;;25.80;14.90;;;20.20;99.90;;;;;;5039949;28;20402;-66
2023/09/12 01:35:09;;;;;;;20.83;14.15;;;20.20;99.90;;;;;;5042053;28;20025;-65
2023/09/12 01:37:35;;;;;;;21.05;12.85;;;20.20;99.90;;;;;;5039122;28;20048;-65
2023/09/12 01:40:03;;;;;;;22.90;13.25;;;20.20;99.90;;;;;;5059329;28;20493;-65
2023/09/12 01:42:35;;;;;;;22.67;13.65;;;20.20;99.90;;;;;;5058229;28;20363;-66
2023/09/12 01:45:01;;;;;;;20.63;14.05;;;20.20;99.90;;;;;;5055181;28;20020;-65
2023/09/12 01:47:29;;;;;;;21.85;13.32;;;20.20;99.90;;;;;;5034866;28;20383;-66
2023/09/12 01:49:58;;;;;;;19.83;13.07;;;20.20;99.90;;;;;;5053870;28;20033;-66
2023/09/12 01:52:26;;;;;;;25.15;13.93;;;20.20;99.90;;;;;;5048956;28;21711;-65
2023/09/12 01:54:52;;;;;;;21.42;13.25;;;20.20;99.90;;;;;;5048861;28;20040;-66
2023/09/12 01:57:22;;;;;;;19.00;12.30;;;20.10;99.90;;;;;;5054216;28;20017;-66
2023/09/12 01:59:48;;;;;;;20.25;13.30;;;20.10;99.90;;;;;;5051240;28;20510;-66
2023/09/12 02:02:17;;;;;;;18.48;13.02;;;20.10;99.90;;;;;;5052288;28;20293;-67
2023/09/12 02:05:19;;;;;;;20.27;12.70;;;20.00;99.90;;;;;;5055584;28;20116;-66
2023/09/12 02:07:46;;;;;;;18.13;10.85;;;19.90;99.90;;;;;;5037988;28;20055;-66
2023/09/12 02:10:12;;;;;;;17.73;11.10;;;19.90;99.90;;;;;;5043535;28;20021;-65
2023/09/12 02:12:39;;;;;;;19.77;11.25;;;19.80;99.90;;;;;;5049094;28;20036;-66
2023/09/12 02:15:05;;;;;;;20.55;12.15;;;19.90;99.90;;;;;;5055105;28;20029;-66
2023/09/12 02:17:30;;;;;;;20.55;11.20;;;19.80;99.90;;;;;;5062260;28;20017;-66
2023/09/12 02:19:56;;;;;;;19.42;12.40;;;19.70;99.90;;;;;;5055995;28;20397;-66
2023/09/12 02:22:21;;;;;;;18.25;11.68;;;19.70;99.90;;;;;;5055952;28;20031;-66
2023/09/12 02:24:47;;;;;;;22.15;11.15;;;19.60;99.90;;;;;;5031991;28;20032;-64
2023/09/12 02:27:13;;;;;;;20.17;10.65;;;19.60;99.90;;;;;;5049295;28;20489;-66
2023/09/12 02:29:39;;;;;;;17.38;11.38;;;19.50;99.90;;;;;;5055528;28;20047;-66
2023/09/12 02:32:05;;;;;;;16.98;10.02;;;19.40;99.90;;;;;;5055170;28;20033;-64
2023/09/12 02:34:32;;;;;;;18.65;11.68;;;19.40;99.90;;;;;;5041485;28;20505;-70
2023/09/12 02:36:57;;;;;;;17.25;12.20;;;19.30;99.90;;;;;;5050018;28;20040;-65
2023/09/12 02:39:23;;;;;;;13.88;10.07;;;19.30;99.90;;;;;;5055766;28;20021;-66
2023/09/12 02:41:48;;;;;;;20.40;10.65;;;19.30;99.90;;;;;;5058811;28;20028;-65
2023/09/12 02:44:14;;;;;;;16.33;10.68;;;19.30;99.90;;;;;;5049634;28;20037;-66
2023/09/12 02:46:39;;;;;;;15.85;10.15;;;19.20;99.90;;;;;;5056701;28;20506;-66
2023/09/12 02:49:05;;;;;;;19.45;11.10;;;19.10;99.90;;;;;;5060165;28;20025;-66
2023/09/12 02:51:31;;;;;;;16.45;11.93;;;19.10;99.90;;;;;;5057129;28;20025;-65
2023/09/12 02:53:57;;;;;;;18.48;11.13;;;19.00;99.90;;;;;;5056734;28;20040;-66
2023/09/12 02:56:23;;;;;;;18.48;11.23;;;19.00;99.90;;;;;;5053288;28;20034;-66
2023/09/12 02:58:49;;;;;;;17.00;11.45;;;19.00;99.90;;;;;;5039109;28;20547;-66
2023/09/12 03:01:19;;;;;;;15.18;11.02;;;19.00;99.90;;;;;;5055475;28;20032;-66
2023/09/12 03:03:48;;;;;;;15.68;11.80;;;19.10;99.90;;;;;;5065082;28;20020;-66
2023/09/12 03:06:15;;;;;;;18.60;11.90;;;19.10;99.90;;;;;;5053962;28;20029;-66
2023/09/12 03:08:41;;;;;;;16.25;10.02;;;19.00;99.90;;;;;;5036930;28;20032;-65
2023/09/12 03:11:07;;;;;;;13.13;9.90;;;19.10;99.90;;;;;;5059770;28;20029;-65
2023/09/12 03:13:33;;;;;;;14.93;9.50;;;19.10;99.90;;;;;;5051899;28;20087;-66
2023/09/12 03:15:59;;;;;;;17.98;11.32;;;19.10;99.90;;;;;;5060966;28;20103;-65
2023/09/12 03:18:25;;;;;;;16.77;11.65;;;19.10;99.90;;;;;;5034014;28;20025;-66
2023/09/12 03:20:51;;;;;;;20.33;11.88;;;19.10;99.90;;;;;;5042642;28;20022;-66
2023/09/12 03:23:17;;;;;;;20.90;13.23;;;19.10;99.90;;;;;;5059044;28;20112;-67
2023/09/12 03:25:42;;;;;;;18.70;11.05;;;19.10;99.90;;;;;;5058130;28;20029;-66
2023/09/12 03:28:08;;;;;;;18.92;12.13;;;19.00;99.90;;;;;;5059751;28;20108;-66
2023/09/12 03:30:35;;;;;;;20.05;12.55;;;19.00;99.90;;;;;;5067852;28;20028;-65
2023/09/12 03:33:01;;;;;;;16.75;11.18;;;19.00;99.90;;;;;;5044382;28;20029;-66
2023/09/12 03:35:29;;;;;;;18.13;11.63;;;19.00;99.90;;;;;;5053150;28;20131;-65
2023/09/12 03:37:54;;;;;;;15.68;10.77;;;19.00;99.90;;;;;;5057031;28;20035;-66
2023/09/12 03:40:20;;;;;;;19.10;11.80;;;18.90;99.90;;;;;;5057210;28;20029;-66
2023/09/12 03:42:45;;;;;;;19.48;12.25;;;18.90;99.90;;;;;;5066316;28;20029;-66
2023/09/12 03:45:11;;;;;;;17.75;13.30;;;18.90;99.90;;;;;;5058120;28;20021;-66
2023/09/12 03:47:37;;;;;;;18.95;12.75;;;18.90;99.90;;;;;;5064843;28;20029;-65
2023/09/12 03:50:03;;;;;;;22.95;13.90;;;18.90;99.90;;;;;;5047933;28;20029;-66
2023/09/12 03:52:29;;;;;;;25.73;15.27;;;18.90;99.90;;;;;;5057970;28;20024;-65
2023/09/12 03:54:55;;;;;;;26.42;15.07;;;19.00;99.90;;;;;;5055108;28;20040;-66
2023/09/12 03:57:20;;;;;;;23.70;14.82;;;19.00;99.90;;;;;;5045138;28;20025;-67
2023/09/12 03:59:46;;;;;;;21.77;14.88;;;18.90;99.90;;;;;;5057692;28;20037;-67
2023/09/12 04:02:12;;;;;;;27.35;13.23;;;18.90;99.90;;;;;;5039040;28;20029;-66
2023/09/12 04:04:38;;;;;;;21.23;15.35;;;18.90;99.90;;;;;;5063768;28;20041;-66
2023/09/12 04:07:04;;;;;;;19.58;14.10;;;18.90;99.90;;;;;;5058906;28;20115;-66
2023/09/12 04:09:30;;;;;;;24.10;14.88;;;18.80;99.90;;;;;;5051958;28;20035;-66
2023/09/12 04:11:56;;;;;;;24.77;14.13;;;18.90;99.90;;;;;;5060260;28;20698;-66
2023/09/12 04:14:22;;;;;;;22.00;13.10;;;18.90;99.90;;;;;;5054912;28;20044;-66
2023/09/12 04:16:47;;;;;;;16.65;11.88;;;18.90;99.90;;;;;;5063120;28;20016;-66
2023/09/12 04:19:16;;;;;;;23.27;13.27;;;18.90;99.90;;;;;;5051520;28;20017;-66
2023/09/12 04:21:41;;;;;;;26.55;13.00;;;18.80;99.90;;;;;;5056784;28;20025;-66
2023/09/12 04:24:07;;;;;;;22.45;12.70;;;18.70;99.90;;;;;;5058081;28;20035;-66
2023/09/12 04:26:33;;;;;;;22.38;13.27;;;18.70;99.90;;;;;;5062254;28;20020;-66
2023/09/12 04:28:59;;;;;;;19.30;12.95;;;18.60;99.90;;;;;;5061467;28;20044;-65
2023/09/12 04:31:25;;;;;;;24.58;13.77;;;18.60;99.90;;;;;;5054438;28;20033;-66
2023/09/12 04:33:52;;;;;;;17.63;11.68;;;18.60;99.90;;;;;;5053146;28;20033;-66
2023/09/12 04:36:17;;;;;;;21.65;13.15;;;18.60;99.90;;;;;;5053288;28;20060;-66
2023/09/12 04:38:43;;;;;;;19.08;13.80;;;18.50;99.90;;;;;;5057562;28;20059;-66
2023/09/12 04:41:14;;;;;;;20.42;13.05;;;18.50;99.90;;;;;;5053563;28;20044;-66
2023/09/12 04:43:39;;;;;;;19.95;13.57;;;18.50;99.90;;;;;;5054000;28;20016;-66
2023/09/12 04:46:05;;;;;;;22.13;13.02;;;18.50;99.90;;;;;;5062837;28;20035;-65
2023/09/12 04:48:31;;;;;;;21.00;13.43;;;18.50;99.90;;;;;;5053144;28;20052;-66
2023/09/12 04:50:56;;;;;;;19.35;12.95;;;18.50;99.90;;;;;;5054286;28;20106;-66
2023/09/12 04:53:22;;;;;;;18.42;13.93;;;18.50;99.90;;;;;;5052716;28;20025;-65
2023/09/12 04:55:48;;;;;;;20.73;14.48;;;18.50;99.90;;;;;;5054940;28;20029;-65
2023/09/12 04:58:13;;;;;;;24.05;14.30;;;18.50;99.90;;;;;;5057093;28;20424;-66
2023/09/12 05:00:40;;;;;;;24.65;14.45;;;18.50;99.90;;;;;;5060057;28;20124;-66
2023/09/12 05:03:05;;;;;;;21.70;14.02;;;18.50;99.90;;;;;;5054952;28;20532;-66
2023/09/12 05:05:33;;;;;;;23.60;13.93;;;18.50;99.90;;;;;;5054498;28;20024;-66
2023/09/12 05:07:59;;;;;;;25.90;15.05;;;18.50;99.90;;;;;;5060791;28;20627;-66
2023/09/12 05:10:25;;;;;;;28.10;15.93;;;18.60;99.90;;;;;;5054055;28;20044;-66
2023/09/12 05:12:50;;;;;;;21.38;14.43;;;18.60;99.90;;;;;;5050799;28;20191;-66
2023/09/12 05:15:16;;;;;;;22.10;15.18;;;18.70;99.90;;;;;;5051096;28;20036;-66
2023/09/12 05:17:42;;;;;;;24.27;15.07;;;18.70;99.90;;;;;;5056563;28;20043;-66
2023/09/12 05:20:09;;;;;;;26.25;14.80;;;18.70;99.90;;;;;;5050792;28;20071;-66
2023/09/12 05:22:35;;;;;;;21.70;15.77;;;18.80;99.90;;;;;;5061280;28;20017;-66
2023/09/12 05:25:00;;;;;;;25.83;16.25;;;18.80;99.90;;;;;;5056509;28;20082;-65
2023/09/12 05:27:26;;;;;;;22.42;15.63;;;18.80;99.90;;;;;;5059883;28;20076;-66
2023/09/12 05:29:51;;;;;;;38.65;20.48;;;18.90;99.90;;;;;;5051425;28;20036;-67
2023/09/12 05:32:17;;;;;;;35.10;19.67;;;18.90;99.90;;;;;;5054998;28;20024;-65
2023/09/12 05:34:43;;;;;;;30.25;19.92;;;18.90;99.90;;;;;;5058741;28;20509;-65
2023/09/12 05:37:08;;;;;;;33.80;19.52;;;18.90;99.90;;;;;;5050171;28;20031;-66
2023/09/12 05:39:34;;;;;;;34.22;20.08;;;18.90;99.90;;;;;;5059248;28;20058;-65
2023/09/12 05:41:59;;;;;;;34.33;19.45;;;19.00;99.90;;;;;;5040291;28;20063;-65
2023/09/12 05:44:25;;;;;;;35.30;18.98;;;19.00;99.90;;;;;;5060135;28;20048;-66
2023/09/12 05:46:50;;;;;;;39.30;19.33;;;19.00;99.90;;;;;;5056915;28;20040;-66
2023/09/12 05:49:16;;;;;;;37.33;20.67;;;19.00;99.90;;;;;;5054095;28;20043;-66
2023/09/12 05:51:42;;;;;;;39.13;21.30;;;19.10;99.90;;;;;;5049879;28;20394;-66
2023/09/12 05:54:08;;;;;;;36.63;19.95;;;19.10;99.90;;;;;;5051337;28;20040;-65
2023/09/12 05:56:34;;;;;;;39.50;21.50;;;19.00;99.90;;;;;;5054513;28;20021;-66
2023/09/12 05:59:00;;;;;;;41.38;21.55;;;19.00;99.90;;;;;;5056872;28;20025;-65
2023/09/12 06:01:25;;;;;;;37.92;22.15;;;19.10;99.90;;;;;;5053828;28;20063;-66
2023/09/12 06:03:51;;;;;;;40.55;21.15;;;19.10;99.90;;;;;;5054550;28;20095;-66
2023/09/12 06:06:17;;;;;;;40.15;21.13;;;19.20;99.90;;;;;;5052257;28;20029;-66
2023/09/12 06:08:42;;;;;;;43.92;22.58;;;19.20;99.90;;;;;;5051230;28;20024;-66
2023/09/12 06:11:08;;;;;;;36.70;21.60;;;19.20;99.90;;;;;;5055970;28;20534;-66
2023/09/12 06:13:37;;;;;;;36.33;20.25;;;19.30;99.90;;;;;;5047259;28;20036;-66
2023/09/12 06:16:03;;;;;;;38.30;20.13;;;19.50;99.90;;;;;;5053431;28;20024;-68
2023/09/12 06:18:30;;;;;;;31.00;19.30;;;19.60;99.90;;;;;;5056610;28;20085;-66
2023/09/12 06:20:57;;;;;;;36.25;18.63;;;19.80;99.90;;;;;;5063926;28;20032;-64
2023/09/12 06:23:23;;;;;;;29.95;17.48;;;20.00;99.90;;;;;;5053145;28;20497;-65
2023/09/12 06:25:49;;;;;;;32.53;18.58;;;20.20;99.90;;;;;;5051013;28;20078;-66
2023/09/12 06:28:28;;;;;;;33.65;16.40;;;20.30;99.90;;;;;;5058978;28;20032;-66
2023/09/12 06:30:53;;;;;;;26.58;16.75;;;20.40;99.90;;;;;;5048623;28;20024;-68
2023/09/12 06:33:19;;;;;;;27.92;17.27;;;20.70;99.90;;;;;;5058364;28;20044;-66
2023/09/12 06:35:52;;;;;;;25.90;16.70;;;20.80;99.90;;;;;;5059788;28;20032;-66
2023/09/12 06:38:18;;;;;;;26.50;15.40;;;21.10;99.90;;;;;;5053322;28;20021;-66
2023/09/12 06:40:44;;;;;;;22.25;14.73;;;21.40;99.90;;;;;;5055594;28;20039;-66
2023/09/12 06:43:10;;;;;;;24.67;15.25;;;21.50;99.90;;;;;;5059514;28;20100;-66
2023/09/12 06:45:37;;;;;;;20.98;13.82;;;21.70;99.90;;;;;;5056099;28;20037;-66
2023/09/12 06:48:03;;;;;;;17.08;12.85;;;21.90;99.90;;;;;;5058612;28;20024;-66
2023/09/12 06:50:29;;;;;;;18.90;13.00;;;21.90;99.90;;;;;;5052200;28;20029;-66
2023/09/12 06:52:55;;;;;;;21.17;11.48;;;22.00;99.90;;;;;;5054712;28;20482;-66
2023/09/12 06:55:20;;;;;;;18.58;11.27;;;22.00;99.90;;;;;;5057401;28;20070;-67
2023/09/12 06:57:46;;;;;;;17.83;11.55;;;22.30;99.90;;;;;;5056558;28;20033;-67
2023/09/12 07:00:12;;;;;;;16.35;9.02;;;22.70;99.90;;;;;;5066417;28;20023;-66
2023/09/12 07:02:38;;;;;;;13.73;8.88;;;23.40;99.90;;;;;;5064327;28;20132;-66
2023/09/12 07:05:04;;;;;;;9.77;6.95;;;23.80;99.90;;;;;;5059948;28;20554;-65
2023/09/12 07:07:30;;;;;;;14.90;7.75;;;24.20;99.90;;;;;;5056069;28;20025;-66
2023/09/12 07:09:56;;;;;;;12.88;7.60;;;24.70;99.90;;;;;;5040532;28;20033;-66
2023/09/12 07:12:22;;;;;;;7.35;5.25;;;25.30;99.90;;;;;;5055452;28;20029;-66
2023/09/12 07:14:50;;;;;;;13.18;5.93;;;26.30;99.90;;;;;;5053971;28;20039;-66
2023/09/12 07:17:17;;;;;;;12.98;6.13;;;26.50;99.90;;;;;;5060020;28;20048;-67
2023/09/12 07:19:43;;;;;;;9.20;4.80;;;27.10;99.90;;;;;;5062025;28;20035;-66
2023/09/12 07:22:09;;;;;;;7.38;4.85;;;27.30;99.90;;;;;;5066612;28;20016;-66
2023/09/12 07:24:34;;;;;;;11.18;5.65;;;27.90;99.90;;;;;;5063354;28;20039;-66
2023/09/12 07:27:00;;;;;;;6.70;3.88;;;27.90;99.80;;;;;;5058453;28;20036;-66
2023/09/12 07:29:26;;;;;;;5.85;4.20;;;27.80;99.90;;;;;;5061511;28;20032;-66
2023/09/12 07:31:53;;;;;;;6.10;3.92;;;27.80;99.90;;;;;;5042496;28;20143;-67
2023/09/12 07:34:20;;;;;;;5.63;3.75;;;27.90;99.90;;;;;;5051118;28;21402;-67
2023/09/12 07:36:45;;;;;;;7.50;4.00;;;28.20;99.00;;;;;;5051387;28;20070;-66
2023/09/12 07:39:11;;;;;;;5.53;3.90;;;28.60;98.50;;;;;;5057302;28;20028;-66
2023/09/12 07:41:36;;;;;;;6.78;4.20;;;28.90;97.20;;;;;;5044156;28;20104;-64
2023/09/12 07:44:04;;;;;;;6.40;3.90;;;28.90;97.30;;;;;;5047778;28;20031;-64
2023/09/12 07:46:30;;;;;;;5.00;3.65;;;28.50;97.00;;;;;;5057171;28;20047;-65
2023/09/12 07:48:56;;;;;;;8.70;3.50;;;28.20;97.10;;;;;;5057712;28;20525;-64
2023/09/12 07:51:25;;;;;;;7.03;2.60;;;28.20;97.30;;;;;;5065845;28;20031;-64
2023/09/12 07:53:50;;;;;;;5.22;3.67;;;28.40;97.30;;;;;;5054669;28;20029;-65
2023/09/12 07:56:16;;;;;;;7.13;3.53;;;28.70;96.20;;;;;;5061412;28;20154;-65
2023/09/12 07:58:41;;;;;;;6.82;3.60;;;28.60;95.90;;;;;;5053786;28;20028;-64
2023/09/12 08:01:08;;;;;;;8.32;3.47;;;28.60;96.60;;;;;;5059833;28;20496;-66
2023/09/12 08:03:35;;;;;;;8.07;3.58;;;28.80;95.80;;;;;;5056318;28;20024;-65
2023/09/12 08:06:00;;;;;;;8.02;3.45;;;28.40;96.50;;;;;;5064532;28;20139;-64
2023/09/12 08:08:26;;;;;;;6.35;3.22;;;28.20;97.00;;;;;;5053603;28;20049;-65
2023/09/12 08:10:51;;;;;;;10.88;4.57;;;28.60;96.90;;;;;;5054465;28;20071;-64
2023/09/12 08:13:17;;;;;;;8.82;6.00;;;29.00;95.80;;;;;;5052356;28;20507;-67
2023/09/12 08:15:43;;;;;;;7.15;4.78;;;28.80;95.30;;;;;;5035621;28;20047;-67
2023/09/12 08:18:08;;;;;;;5.65;3.70;;;28.50;95.90;;;;;;5037561;28;20028;-66
2023/09/12 08:20:34;;;;;;;6.50;3.95;;;28.00;97.20;;;;;;5054814;28;20087;-64
2023/09/12 08:22:59;;;;;;;6.32;3.70;;;27.80;98.30;;;;;;5057628;28;20516;-64
2023/09/12 08:25:25;;;;;;;8.25;3.60;;;28.00;97.70;;;;;;5056371;28;20037;-67
2023/09/12 08:27:51;;;;;;;6.05;3.40;;;28.60;96.60;;;;;;5049577;28;20064;-64
2023/09/12 08:30:16;;;;;;;6.50;4.50;;;28.50;96.70;;;;;;5054259;28;20032;-65
2023/09/12 08:32:45;;;;;;;7.05;4.15;;;28.80;96.40;;;;;;5055581;28;20025;-64
2023/09/12 08:35:15;;;;;;;5.78;3.40;;;28.60;96.10;;;;;;5055495;28;20509;-65
2023/09/12 08:37:41;;;;;;;6.50;3.95;;;28.60;96.50;;;;;;5053863;28;20044;-64
2023/09/12 08:40:08;;;;;;;6.18;4.35;;;29.00;96.50;;;;;;5038716;28;20024;-65
2023/09/12 08:42:40;;;;;;;8.18;3.50;;;29.40;95.60;;;;;;5051036;28;20492;-66
2023/09/12 08:45:11;;;;;;;6.80;3.30;;;29.60;95.20;;;;;;5035053;28;21101;-66
2023/09/12 08:47:40;;;;;;;9.00;4.32;;;29.50;95.00;;;;;;5055028;28;20051;-66
2023/09/12 08:50:07;;;;;;;6.15;3.95;;;29.90;94.70;;;;;;5052090;28;20549;-67
2023/09/12 08:52:33;;;;;;;5.85;4.18;;;29.80;94.20;;;;;;5054428;28;20060;-66
2023/09/12 08:54:58;;;;;;;5.40;4.10;;;29.60;94.20;;;;;;5053916;28;20052;-64
2023/09/12 08:57:24;;;;;;;6.22;4.03;;;29.70;94.20;;;;;;5052547;28;20020;-67
2023/09/12 08:59:51;;;;;;;5.43;4.18;;;29.50;94.20;;;;;;5054036;28;20031;-67
2023/09/12 09:02:16;;;;;;;7.13;4.50;;;29.70;94.50;;;;;;5036321;28;20029;-66
2023/09/12 09:04:42;;;;;;;4.47;3.95;;;30.00;94.50;;;;;;5054673;28;20101;-64
2023/09/12 09:07:10;;;;;;;7.50;3.83;;;29.90;94.30;;;;;;5049355;28;20029;-64
2023/09/12 09:09:36;;;;;;;11.18;4.88;;;30.10;93.50;;;;;;5051121;28;20102;-64
2023/09/12 09:12:06;;;;;;;8.60;4.63;;;29.70;93.60;;;;;;5055581;28;21184;-64
2023/09/12 09:14:31;;;;;;;8.35;4.55;;;29.70;93.70;;;;;;5054960;28;20029;-64
2023/09/12 09:16:58;;;;;;;9.10;4.82;;;29.90;93.60;;;;;;5055306;28;20057;-63
2023/09/12 09:19:44;;;;;;;11.95;5.20;;;30.00;92.90;;;;;;5050247;28;20045;-65
2023/09/12 09:22:10;;;;;;;9.10;5.03;;;29.80;92.90;;;;;;5054899;28;20102;-65
2023/09/12 09:24:36;;;;;;;7.43;4.38;;;29.40;93.20;;;;;;5052103;28;20017;-67
2023/09/12 09:27:02;;;;;;;7.03;4.60;;;29.40;93.80;;;;;;5056839;28;20023;-65
2023/09/12 09:29:34;;;;;;;12.90;5.10;;;29.60;93.60;;;;;;5049648;28;20496;-65
2023/09/12 09:32:01;;;;;;;11.57;4.00;;;29.70;93.40;;;;;;5051121;28;20075;-66
2023/09/12 09:34:31;;;;;;;9.10;4.07;;;29.80;93.90;;;;;;5053059;28;20032;-66
2023/09/12 09:36:57;;;;;;;10.38;5.03;;;30.50;92.80;;;;;;5050048;28;20020;-66
2023/09/12 09:39:24;;;;;;;7.43;4.57;;;30.70;92.40;;;;;;5049129;28;20028;-67
2023/09/12 09:41:52;;;;;;;6.85;4.55;;;30.40;92.20;;;;;;5035278;28;20087;-66
2023/09/12 09:44:18;;;;;;;7.68;4.60;;;30.40;92.70;;;;;;5055201;28;20138;-66
2023/09/12 09:46:44;;;;;;;7.28;4.90;;;30.70;91.90;;;;;;5050985;28;20055;-65
2023/09/12 09:49:11;;;;;;;7.95;4.60;;;30.30;92.00;;;;;;5052102;28;20032;-65
2023/09/12 09:51:45;;;;;;;9.10;4.45;;;30.00;93.00;;;;;;5055779;28;20037;-65
2023/09/12 09:54:12;;;;;;;7.72;5.20;;;30.00;92.70;;;;;;5050263;28;20032;-65
2023/09/12 09:56:54;;;;;;;9.43;5.40;;;29.90;93.30;;;;;;5031263;28;20033;-65
2023/09/12 09:59:22;;;;;;;9.25;4.55;;;29.40;93.80;;;;;;5050653;28;20038;-66
2023/09/12 10:01:50;;;;;;;12.02;5.55;;;28.70;95.00;;;;;;5051653;28;20033;-65
2023/09/12 10:04:17;;;;;;;9.32;5.78;;;28.30;96.80;;;;;;5037397;28;20498;-65
2023/09/12 10:06:44;;;;;;;8.07;4.65;;;28.00;96.50;;;;;;5053113;28;20029;-66
2023/09/12 10:09:11;;;;;;;10.48;5.50;;;28.30;97.60;;;;;;5053627;28;20528;-65
2023/09/12 10:11:39;;;;;;;10.05;5.57;;;28.80;96.30;;;;;;5055279;28;20035;-66
2023/09/12 10:14:05;;;;;;;10.77;4.47;;;28.70;96.40;;;;;;5049956;28;20122;-65
2023/09/12 10:16:33;;;;;;;7.82;4.90;;;29.20;95.80;;;;;;5047090;28;20529;-65
2023/09/12 10:19:28;;;;;;;9.38;6.53;;;29.00;95.30;;;;;;5035462;28;20029;-64
2023/09/12 10:22:03;;;;;;;11.57;6.32;;;28.50;95.50;;;;;;5030613;28;20025;-65
2023/09/12 10:24:30;;;;;;;11.25;5.80;;;27.90;96.20;;;;;;5055798;28;20039;-66
2023/09/12 10:26:56;;;;;;;11.55;5.40;;;28.20;96.80;;;;;;5043927;28;20051;-65
2023/09/12 10:29:22;;;;;;;13.48;6.45;;;28.00;96.50;;;;;;5034671;28;20068;-65
2023/09/12 10:31:49;;;;;;;14.95;6.03;;;27.80;96.90;;;;;;5054233;28;20153;-65
2023/09/12 10:34:16;;;;;;;13.45;5.60;;;27.60;98.60;;;;;;5054106;28;20037;-65
2023/09/12 10:36:43;;;;;;;9.75;5.22;;;27.80;98.50;;;;;;5055589;28;21163;-66
2023/09/12 10:39:11;;;;;;;8.68;5.53;;;27.90;98.30;;;;;;5052806;28;20031;-65
2023/09/12 10:41:40;;;;;;;9.50;5.97;;;27.80;97.80;;;;;;5050904;28;20025;-65
2023/09/12 10:44:16;;;;;;;9.93;5.55;;;27.70;97.80;;;;;;5050082;28;20044;-65
2023/09/12 10:46:43;;;;;;;13.88;5.05;;;28.10;98.70;;;;;;5054493;28;20044;-65
2023/09/12 10:49:10;;;;;;;10.50;5.63;;;28.10;98.00;;;;;;5052104;28;20122;-65
2023/09/12 10:51:45;;;;;;;9.02;5.85;;;28.20;97.50;;;;;;5054110;28;20029;-65
2023/09/12 10:54:24;;;;;;;12.35;6.60;;;28.20;97.30;;;;;;5049642;28;20033;-65
2023/09/12 10:57:07;;;;;;;13.02;6.25;;;28.20;96.90;;;;;;5049082;28;20028;-65
2023/09/12 10:59:35;;;;;;;11.77;6.40;;;27.90;97.40;;;;;;5037278;28;20025;-64
2023/09/12 11:02:34;;;;;;;9.30;6.60;;;27.70;97.30;;;;;;5043826;28;20025;-65
2023/09/12 11:05:03;;;;;;;13.57;6.18;;;27.90;97.50;;;;;;5051165;28;20443;-63
2023/09/12 11:07:37;;;;;;;9.98;6.20;;;27.50;98.00;;;;;;5052525;28;20033;-65
2023/09/12 11:10:16;;;;;;;8.93;6.65;;;27.50;98.40;;;;;;5052161;28;20035;-65
2023/09/12 11:12:43;;;;;;;13.10;5.82;;;27.90;97.90;;;;;;5048833;28;20036;-65
2023/09/12 11:15:10;;;;;;;10.88;6.15;;;28.10;97.40;;;;;;5054444;28;20054;-65
2023/09/12 11:17:46;;;;;;;11.25;6.88;;;28.30;97.30;;;;;;5055316;28;20029;-67
2023/09/12 11:20:13;;;;;;;12.50;5.82;;;28.10;97.70;;;;;;5034112;28;20490;-68
2023/09/12 11:22:46;;;;;;;6.68;5.57;;;27.80;97.50;;;;;;5052131;28;20707;-68
2023/09/12 11:25:17;;;;;;;11.85;6.10;;;27.30;98.60;;;;;;5053208;28;20039;-67
2023/09/12 11:27:51;;;;;;;14.05;6.03;;;27.50;98.20;;;;;;5047136;28;20405;-66
2023/09/12 11:30:30;;;;;;;10.23;6.10;;;27.40;98.60;;;;;;5052306;28;20028;-66
2023/09/12 11:32:57;;;;;;;8.77;5.90;;;27.30;98.80;;;;;;5045653;28;20029;-66
2023/09/12 11:35:25;;;;;;;9.73;5.60;;;27.30;99.00;;;;;;5048827;28;20147;-67
2023/09/12 11:37:54;;;;;;;12.10;5.60;;;27.30;99.30;;;;;;5049789;28;20118;-65
2023/09/12 11:40:33;;;;;;;12.05;5.47;;;27.30;99.00;;;;;;5052614;28;20154;-66
2023/09/12 11:42:59;;;;;;;10.00;5.50;;;27.30;98.70;;;;;;5053793;28;20025;-66
2023/09/12 11:45:25;;;;;;;10.02;5.68;;;27.40;98.70;;;;;;5052552;28;20067;-67
2023/09/12 11:47:51;;;;;;;8.95;5.05;;;27.30;99.00;;;;;;5055771;28;20111;-67
2023/09/12 11:50:55;;;;;;;10.45;5.75;;;27.40;99.30;;;;;;5051714;28;20029;-67
2023/09/12 11:53:25;;;;;;;11.30;6.22;;;27.60;98.10;;;;;;5024606;28;20526;-67
2023/09/12 11:55:56;;;;;;;11.15;5.60;;;27.40;98.70;;;;;;5058576;28;20025;-67
2023/09/12 11:58:22;;;;;;;13.48;5.05;;;27.70;98.00;;;;;;5058343;28;20505;-67
2023/09/12 12:00:51;;;;;;;12.77;5.72;;;27.80;98.30;;;;;;5054144;28;20107;-67
2023/09/12 12:03:18;;;;;;;12.23;4.95;;;27.80;97.90;;;;;;5055276;28;20021;-67
2023/09/12 12:05:44;;;;;;;11.15;4.60;;;27.60;98.10;;;;;;5057473;28;20068;-67
2023/09/12 12:08:13;;;;;;;12.07;5.40;;;27.50;98.00;;;;;;5058319;28;20083;-67
2023/09/12 12:10:39;;;;;;;8.88;5.53;;;27.30;98.10;;;;;;5054653;28;20063;-66
2023/09/12 12:13:06;;;;;;;9.10;5.35;;;27.50;97.70;;;;;;5038896;28;20029;-66
2023/09/12 12:15:32;;;;;;;13.70;5.43;;;27.30;97.70;;;;;;5056117;28;20035;-66
2023/09/12 12:17:58;;;;;;;11.45;5.28;;;27.30;98.30;;;;;;5055250;28;20021;-65
2023/09/12 12:20:24;;;;;;;8.80;5.47;;;27.10;99.20;;;;;;5053831;28;20498;-65
2023/09/12 12:22:52;;;;;;;9.85;4.75;;;27.30;98.70;;;;;;5054182;28;20032;-66
2023/09/12 12:25:18;;;;;;;6.32;4.38;;;27.30;98.80;;;;;;5056146;28;20453;-65
2023/09/12 12:27:44;;;;;;;10.05;4.93;;;27.40;98.80;;;;;;5053447;28;20037;-66
2023/09/12 12:30:11;;;;;;;9.10;4.88;;;27.30;98.90;;;;;;5039488;28;20041;-66
2023/09/12 12:32:51;;;;;;;9.25;5.15;;;27.30;98.80;;;;;;5054303;28;20039;-66
2023/09/12 12:35:22;;;;;;;13.70;4.85;;;27.30;97.80;;;;;;5040323;28;20619;-65